Bergheim, Texas
Current Conditions -  °F | °C
As of 2:55 AM on Friday 31 Oct 2014 (Local Time) from K5C1 Reporting Station
Overcast Overcast  
Wind Chill: 64°   Ceiling: 1600
Heat Index: 64°   Visibility: 7mi
Dew Point: 61°   Wind: 7mph
Humidity: 88%   Direction: 10°N
Pressure: 30.16"   Gusts: 10mph
Location:  29.83°N, 98.58°W
Report Text: K5C1 310755Z AUTO 01006G09KT 7SM SCT009 OVC016 18/16 A3016 RMK AO1 P0003
Loading
Personal Weather Stations






























Interactive Weather Map
Tropical Storm Tracking
New forecast layout! Learn more

10-Day Weather Forecast

Advertisements
Track Severe Weather on mobile